Airfield :
LOGIN :

Register | Disclaimer

   EN    FR    IT 

 










Legend :    VFR   Marginal VFR   IFR   Intensive IFR   Very Intensive IFR
Visi :
Ceiling :
>= 8 km
>= 3000ft
5 to 8 km
1000 to 3000 ft
1500m to 5 km
500 to 1000 ft
800 to 1500m
200 to 500 ft
< 800m
< 200 ft
Symbols :   Thunderstorms  Fog  Heavy snow  Heavy precipitations  Wind > 20 kt
SIGMETs :     Misc.  Thunderstorms  Icing  Turbulence  Mountain Waves  Volcanic Ashes







- Airport Elevation : 121 ft
- IATA code : HUY
- Download approach charts


EGNJ - Humberside

CURRENT METAR :
  • 191220Z 04004KT 2500 BR FEW003 SCT006 15/15 Q1003

EXPIRED METARs :
  • 191150Z 03003KT 4000 BR FEW006 SCT009 15/14 Q1004
  • 191120Z VRB02KT 4000 BR FEW006 SCT011 BKN024 15/14 Q1005
  • 191050Z 12003KT 4000 BR FEW007 BKN044 15/14 Q1005
  • 191020Z 12006KT 3000 -RA BR SCT005 BKN008 15/14 Q1005
  • 190950Z 17004KT 2500 -RA BR OVC005 14/14 Q1005

TAF TAF EGNJ
Valid from the 19 at 12:00 until the 19 at 21:00 UTC


191059Z 1912/1921 15007KT 8000 SCT006
TEMPO 1912/1918 4000 RA BKN006
PROB30
TEMPO 1912/1917 2500 +RA BKN002
ATIS : +44 1652 682 020
No reported NOTAMs for that airfield.



MET'MAP, your aeronautical weather chart ! - Copyright ORBIFLY December 2007 - Disclaimer

ORBIFLY MET'MAP TEAM :

Programming & Development : Alexandra Zaïnal
Concept & Development : Baudouin d'Aumeries
Co-Development & Prog : Marc-Olivier Méhu
Technical & hardware support : Manuel Goepfert

Contact : metmap@orbifly.com




SOURCES & CREDITS :

   NOAA